sensor_id;sensor_type;location;lat;lon;timestamp;pressure;altitude;pressure_sealevel;temperature
68027;BMP180;54819;48.030;14.710;2023-08-07T00:00:18;96986.40;;;15.40
68027;BMP180;54819;48.030;14.710;2023-08-07T00:02:45;96978.20;;;15.40
68027;BMP180;54819;48.030;14.710;2023-08-07T00:05:12;96981.40;;;15.40
68027;BMP180;54819;48.030;14.710;2023-08-07T00:07:38;96986.80;;;15.40
68027;BMP180;54819;48.030;14.710;2023-08-07T00:10:06;96973.20;;;15.40
68027;BMP180;54819;48.030;14.710;2023-08-07T00:12:33;96980.40;;;15.40
68027;BMP180;54819;48.030;14.710;2023-08-07T00:15:00;96976.80;;;15.40
68027;BMP180;54819;48.030;14.710;2023-08-07T00:17:27;96972.20;;;15.38
68027;BMP180;54819;48.030;14.710;2023-08-07T00:19:54;96971.80;;;15.30
68027;BMP180;54819;48.030;14.710;2023-08-07T00:22:21;96962.80;;;15.30
68027;BMP180;54819;48.030;14.710;2023-08-07T00:24:47;96958.20;;;15.30
68027;BMP180;54819;48.030;14.710;2023-08-07T00:27:14;96954.40;;;15.30
68027;BMP180;54819;48.030;14.710;2023-08-07T00:29:41;96944.80;;;15.30
68027;BMP180;54819;48.030;14.710;2023-08-07T00:32:08;96945.60;;;15.28
68027;BMP180;54819;48.030;14.710;2023-08-07T00:34:35;96940.60;;;15.20
68027;BMP180;54819;48.030;14.710;2023-08-07T00:37:02;96935.80;;;15.20
68027;BMP180;54819;48.030;14.710;2023-08-07T00:39:28;96931.40;;;15.20
68027;BMP180;54819;48.030;14.710;2023-08-07T00:41:55;96923.80;;;15.20
68027;BMP180;54819;48.030;14.710;2023-08-07T00:44:21;96930.60;;;15.20
68027;BMP180;54819;48.030;14.710;2023-08-07T00:46:50;96930.20;;;15.12
68027;BMP180;54819;48.030;14.710;2023-08-07T00:49:18;96916.40;;;15.10
68027;BMP180;54819;48.030;14.710;2023-08-07T00:51:46;96928.60;;;15.10
68027;BMP180;54819;48.030;14.710;2023-08-07T00:54:15;96925.60;;;15.10
68027;BMP180;54819;48.030;14.710;2023-08-07T00:56:44;96924.20;;;15.10
68027;BMP180;54819;48.030;14.710;2023-08-07T00:59:11;96933.60;;;15.10
68027;BMP180;54819;48.030;14.710;2023-08-07T01:01:38;96937.40;;;15.10
68027;BMP180;54819;48.030;14.710;2023-08-07T01:04:05;96941.00;;;15.10
68027;BMP180;54819;48.030;14.710;2023-08-07T01:06:32;96942.20;;;15.10
68027;BMP180;54819;48.030;14.710;2023-08-07T01:08:58;96945.60;;;15.00
68027;BMP180;54819;48.030;14.710;2023-08-07T01:14:52;96956.20;;;15.00
68027;BMP180;54819;48.030;14.710;2023-08-07T01:17:22;96959.20;;;15.00
68027;BMP180;54819;48.030;14.710;2023-08-07T01:19:53;96953.80;;;15.02
68027;BMP180;54819;48.030;14.710;2023-08-07T01:22:20;96961.60;;;15.00
68027;BMP180;54819;48.030;14.710;2023-08-07T01:24:48;96968.80;;;15.00
68027;BMP180;54819;48.030;14.710;2023-08-07T01:35:40;96979.40;;;15.10
68027;BMP180;54819;48.030;14.710;2023-08-07T01:38:08;96972.20;;;15.00
68027;BMP180;54819;48.030;14.710;2023-08-07T01:40:37;96976.80;;;15.00
68027;BMP180;54819;48.030;14.710;2023-08-07T01:43:04;96970.80;;;15.00
68027;BMP180;54819;48.030;14.710;2023-08-07T01:45:31;96974.00;;;15.00
68027;BMP180;54819;48.030;14.710;2023-08-07T01:47:59;96968.40;;;15.00
68027;BMP180;54819;48.030;14.710;2023-08-07T01:50:26;96969.40;;;15.00
68027;BMP180;54819;48.030;14.710;2023-08-07T01:52:52;96972.00;;;15.00
68027;BMP180;54819;48.030;14.710;2023-08-07T01:55:20;96968.60;;;15.00
68027;BMP180;54819;48.030;14.710;2023-08-07T01:57:51;96970.20;;;14.94
68027;BMP180;54819;48.030;14.710;2023-08-07T02:00:18;96977.80;;;14.94
68027;BMP180;54819;48.030;14.710;2023-08-07T02:02:44;96969.60;;;14.94
68027;BMP180;54819;48.030;14.710;2023-08-07T02:05:14;96967.00;;;15.00
68027;BMP180;54819;48.030;14.710;2023-08-07T02:07:42;96974.60;;;14.90
68027;BMP180;54819;48.030;14.710;2023-08-07T02:10:09;96974.40;;;14.96
68027;BMP180;54819;48.030;14.710;2023-08-07T02:12:36;96973.60;;;15.00
68027;BMP180;54819;48.030;14.710;2023-08-07T02:15:03;96976.20;;;15.00
68027;BMP180;54819;48.030;14.710;2023-08-07T02:17:30;96975.80;;;15.00
68027;BMP180;54819;48.030;14.710;2023-08-07T02:19:57;96974.00;;;15.00
68027;BMP180;54819;48.030;14.710;2023-08-07T02:22:25;96976.00;;;15.00
68027;BMP180;54819;48.030;14.710;2023-08-07T02:24:51;96979.00;;;15.00
68027;BMP180;54819;48.030;14.710;2023-08-07T02:27:18;96985.20;;;15.00
68027;BMP180;54819;48.030;14.710;2023-08-07T02:29:46;96977.40;;;14.96
68027;BMP180;54819;48.030;14.710;2023-08-07T02:32:12;96980.00;;;15.00
68027;BMP180;54819;48.030;14.710;2023-08-07T02:34:39;96974.40;;;14.94
68027;BMP180;54819;48.030;14.710;2023-08-07T02:37:06;96988.40;;;14.92
68027;BMP180;54819;48.030;14.710;2023-08-07T02:39:32;96980.80;;;14.90
68027;BMP180;54819;48.030;14.710;2023-08-07T02:41:59;96993.20;;;14.90
68027;BMP180;54819;48.030;14.710;2023-08-07T02:44:26;96983.80;;;14.90
68027;BMP180;54819;48.030;14.710;2023-08-07T02:46:53;96995.20;;;14.90
68027;BMP180;54819;48.030;14.710;2023-08-07T02:49:20;96991.00;;;14.80
68027;BMP180;54819;48.030;14.710;2023-08-07T02:51:46;96991.00;;;14.80
68027;BMP180;54819;48.030;14.710;2023-08-07T02:54:13;97002.40;;;14.80
68027;BMP180;54819;48.030;14.710;2023-08-07T02:56:41;96997.00;;;14.70
68027;BMP180;54819;48.030;14.710;2023-08-07T02:59:07;97004.20;;;14.68
68027;BMP180;54819;48.030;14.710;2023-08-07T03:01:34;97005.20;;;14.60
68027;BMP180;54819;48.030;14.710;2023-08-07T03:04:01;96999.00;;;14.60
68027;BMP180;54819;48.030;14.710;2023-08-07T03:06:27;97011.60;;;14.60
68027;BMP180;54819;48.030;14.710;2023-08-07T03:08:54;97010.40;;;14.60
68027;BMP180;54819;48.030;14.710;2023-08-07T03:11:20;97011.00;;;14.54
68027;BMP180;54819;48.030;14.710;2023-08-07T03:13:47;97015.20;;;14.50
68027;BMP180;54819;48.030;14.710;2023-08-07T03:16:15;97018.00;;;14.50
68027;BMP180;54819;48.030;14.710;2023-08-07T03:18:42;97016.80;;;14.50
68027;BMP180;54819;48.030;14.710;2023-08-07T03:21:09;97026.60;;;14.50
68027;BMP180;54819;48.030;14.710;2023-08-07T03:23:36;97021.20;;;14.48
68027;BMP180;54819;48.030;14.710;2023-08-07T03:26:07;97017.60;;;14.40
68027;BMP180;54819;48.030;14.710;2023-08-07T03:28:45;97028.20;;;14.40
68027;BMP180;54819;48.030;14.710;2023-08-07T03:31:14;97022.60;;;14.40
68027;BMP180;54819;48.030;14.710;2023-08-07T03:33:41;97021.40;;;14.40
68027;BMP180;54819;48.030;14.710;2023-08-07T03:36:08;97026.80;;;14.40
68027;BMP180;54819;48.030;14.710;2023-08-07T03:38:39;97030.60;;;14.30
68027;BMP180;54819;48.030;14.710;2023-08-07T03:41:06;97029.60;;;14.30
68027;BMP180;54819;48.030;14.710;2023-08-07T03:43:33;97035.00;;;14.22
68027;BMP180;54819;48.030;14.710;2023-08-07T03:46:00;97040.60;;;14.20
68027;BMP180;54819;48.030;14.710;2023-08-07T03:48:30;97044.20;;;14.20
68027;BMP180;54819;48.030;14.710;2023-08-07T03:51:05;97055.40;;;14.10
68027;BMP180;54819;48.030;14.710;2023-08-07T03:53:36;97050.20;;;14.10
68027;BMP180;54819;48.030;14.710;2023-08-07T03:56:04;97063.00;;;14.10
68027;BMP180;54819;48.030;14.710;2023-08-07T03:58:32;97062.80;;;14.10
68027;BMP180;54819;48.030;14.710;2023-08-07T04:00:59;97068.00;;;14.02
68027;BMP180;54819;48.030;14.710;2023-08-07T04:03:26;97061.60;;;14.00
68027;BMP180;54819;48.030;14.710;2023-08-07T04:05:54;97072.20;;;13.90
68027;BMP180;54819;48.030;14.710;2023-08-07T04:08:22;97075.00;;;13.80
68027;BMP180;54819;48.030;14.710;2023-08-07T04:11:03;97080.80;;;13.80
68027;BMP180;54819;48.030;14.710;2023-08-07T04:13:30;97088.40;;;13.72
68027;BMP180;54819;48.030;14.710;2023-08-07T04:15:58;97088.00;;;13.70
68027;BMP180;54819;48.030;14.710;2023-08-07T04:18:25;97095.60;;;13.60
68027;BMP180;54819;48.030;14.710;2023-08-07T04:20:53;97094.00;;;13.60
68027;BMP180;54819;48.030;14.710;2023-08-07T04:23:21;97095.60;;;13.50
68027;BMP180;54819;48.030;14.710;2023-08-07T04:25:48;97088.40;;;13.50
68027;BMP180;54819;48.030;14.710;2023-08-07T04:28:15;97093.60;;;13.50
68027;BMP180;54819;48.030;14.710;2023-08-07T04:30:43;97093.40;;;13.40
68027;BMP180;54819;48.030;14.710;2023-08-07T04:33:10;97090.40;;;13.30
68027;BMP180;54819;48.030;14.710;2023-08-07T04:35:37;97087.60;;;13.30
68027;BMP180;54819;48.030;14.710;2023-08-07T04:38:04;97086.40;;;13.20
68027;BMP180;54819;48.030;14.710;2023-08-07T04:40:30;97080.40;;;13.20
68027;BMP180;54819;48.030;14.710;2023-08-07T04:42:57;97082.80;;;13.20
68027;BMP180;54819;48.030;14.710;2023-08-07T04:45:24;97082.80;;;13.20
68027;BMP180;54819;48.030;14.710;2023-08-07T04:47:50;97073.60;;;13.16
68027;BMP180;54819;48.030;14.710;2023-08-07T04:50:18;97072.40;;;13.20
68027;BMP180;54819;48.030;14.710;2023-08-07T04:52:45;97064.40;;;13.20
68027;BMP180;54819;48.030;14.710;2023-08-07T04:55:12;97067.60;;;13.10
68027;BMP180;54819;48.030;14.710;2023-08-07T04:57:38;97050.00;;;13.10
68027;BMP180;54819;48.030;14.710;2023-08-07T05:00:07;97062.80;;;13.10
68027;BMP180;54819;48.030;14.710;2023-08-07T05:02:34;97061.00;;;13.10
68027;BMP180;54819;48.030;14.710;2023-08-07T05:05:01;97071.40;;;13.10
68027;BMP180;54819;48.030;14.710;2023-08-07T05:07:28;97049.80;;;13.10
68027;BMP180;54819;48.030;14.710;2023-08-07T05:09:54;97045.80;;;13.02
68027;BMP180;54819;48.030;14.710;2023-08-07T05:12:21;97052.80;;;12.98
68027;BMP180;54819;48.030;14.710;2023-08-07T05:14:49;97053.40;;;12.90
68027;BMP180;54819;48.030;14.710;2023-08-07T05:17:15;97054.60;;;12.80
68027;BMP180;54819;48.030;14.710;2023-08-07T05:19:42;97062.60;;;12.80
68027;BMP180;54819;48.030;14.710;2023-08-07T05:22:09;97062.40;;;12.70
68027;BMP180;54819;48.030;14.710;2023-08-07T05:24:35;97061.40;;;12.70
68027;BMP180;54819;48.030;14.710;2023-08-07T05:27:08;97075.80;;;12.70
68027;BMP180;54819;48.030;14.710;2023-08-07T05:29:35;97076.60;;;12.72
68027;BMP180;54819;48.030;14.710;2023-08-07T05:32:14;97078.80;;;12.72
68027;BMP180;54819;48.030;14.710;2023-08-07T05:34:41;97077.20;;;12.70
68027;BMP180;54819;48.030;14.710;2023-08-07T05:37:08;97070.20;;;12.70
68027;BMP180;54819;48.030;14.710;2023-08-07T05:39:35;97065.60;;;12.70
68027;BMP180;54819;48.030;14.710;2023-08-07T05:42:02;97060.40;;;12.70
68027;BMP180;54819;48.030;14.710;2023-08-07T05:44:29;97078.20;;;12.70
68027;BMP180;54819;48.030;14.710;2023-08-07T05:46:56;97069.40;;;12.70
68027;BMP180;54819;48.030;14.710;2023-08-07T05:49:23;97079.00;;;12.70
68027;BMP180;54819;48.030;14.710;2023-08-07T05:51:52;97081.20;;;12.70
68027;BMP180;54819;48.030;14.710;2023-08-07T05:54:20;97089.80;;;12.70
68027;BMP180;54819;48.030;14.710;2023-08-07T05:56:47;97089.60;;;12.70
68027;BMP180;54819;48.030;14.710;2023-08-07T05:59:14;97106.40;;;12.70
68027;BMP180;54819;48.030;14.710;2023-08-07T06:01:41;97103.40;;;12.70
68027;BMP180;54819;48.030;14.710;2023-08-07T06:04:08;97112.60;;;12.78
68027;BMP180;54819;48.030;14.710;2023-08-07T06:06:36;97125.40;;;12.80
68027;BMP180;54819;48.030;14.710;2023-08-07T06:09:03;97107.00;;;12.82
68027;BMP180;54819;48.030;14.710;2023-08-07T06:11:31;97114.40;;;12.88
68027;BMP180;54819;48.030;14.710;2023-08-07T06:13:58;97111.20;;;12.90
68027;BMP180;54819;48.030;14.710;2023-08-07T06:16:25;97115.20;;;12.90
68027;BMP180;54819;48.030;14.710;2023-08-07T06:18:52;97096.60;;;13.00
68027;BMP180;54819;48.030;14.710;2023-08-07T06:21:19;97107.40;;;13.00
68027;BMP180;54819;48.030;14.710;2023-08-07T06:23:47;97110.80;;;13.06
68027;BMP180;54819;48.030;14.710;2023-08-07T06:26:14;97114.40;;;13.10
68027;BMP180;54819;48.030;14.710;2023-08-07T06:28:41;97106.20;;;13.12
68027;BMP180;54819;48.030;14.710;2023-08-07T06:31:10;97114.00;;;13.20
68027;BMP180;54819;48.030;14.710;2023-08-07T06:33:37;97115.80;;;13.30
68027;BMP180;54819;48.030;14.710;2023-08-07T06:36:04;97123.00;;;13.30
68027;BMP180;54819;48.030;14.710;2023-08-07T06:38:31;97121.60;;;13.30
68027;BMP180;54819;48.030;14.710;2023-08-07T06:40:58;97122.40;;;13.34
68027;BMP180;54819;48.030;14.710;2023-08-07T06:43:25;97139.00;;;13.40
68027;BMP180;54819;48.030;14.710;2023-08-07T06:45:54;97140.20;;;13.40
68027;BMP180;54819;48.030;14.710;2023-08-07T06:48:21;97139.40;;;13.40
68027;BMP180;54819;48.030;14.710;2023-08-07T06:50:49;97142.00;;;13.40
68027;BMP180;54819;48.030;14.710;2023-08-07T06:53:17;97143.20;;;13.40
68027;BMP180;54819;48.030;14.710;2023-08-07T06:55:44;97142.60;;;13.42
68027;BMP180;54819;48.030;14.710;2023-08-07T06:58:11;97135.40;;;13.40
68027;BMP180;54819;48.030;14.710;2023-08-07T07:00:37;97147.40;;;13.50
68027;BMP180;54819;48.030;14.710;2023-08-07T07:03:04;97158.80;;;13.50
68027;BMP180;54819;48.030;14.710;2023-08-07T07:05:31;97150.40;;;13.50
68027;BMP180;54819;48.030;14.710;2023-08-07T07:07:59;97155.00;;;13.50
68027;BMP180;54819;48.030;14.710;2023-08-07T07:10:26;97176.40;;;13.50
68027;BMP180;54819;48.030;14.710;2023-08-07T07:12:53;97178.80;;;13.50
68027;BMP180;54819;48.030;14.710;2023-08-07T07:15:19;97173.20;;;13.50
68027;BMP180;54819;48.030;14.710;2023-08-07T07:17:46;97172.00;;;13.50
68027;BMP180;54819;48.030;14.710;2023-08-07T07:20:13;97180.20;;;13.50
68027;BMP180;54819;48.030;14.710;2023-08-07T07:22:40;97189.60;;;13.58
68027;BMP180;54819;48.030;14.710;2023-08-07T07:25:07;97191.00;;;13.50
68027;BMP180;54819;48.030;14.710;2023-08-07T07:27:34;97190.40;;;13.50
68027;BMP180;54819;48.030;14.710;2023-08-07T07:30:00;97205.20;;;13.50
68027;BMP180;54819;48.030;14.710;2023-08-07T07:32:27;97195.40;;;13.52
68027;BMP180;54819;48.030;14.710;2023-08-07T07:34:54;97213.00;;;13.60
68027;BMP180;54819;48.030;14.710;2023-08-07T07:37:21;97203.60;;;13.70
68027;BMP180;54819;48.030;14.710;2023-08-07T07:39:47;97206.60;;;13.80
68027;BMP180;54819;48.030;14.710;2023-08-07T07:42:14;97207.80;;;13.90
68027;BMP180;54819;48.030;14.710;2023-08-07T07:44:41;97213.60;;;13.90
68027;BMP180;54819;48.030;14.710;2023-08-07T07:47:08;97219.40;;;13.90
68027;BMP180;54819;48.030;14.710;2023-08-07T07:49:39;97214.00;;;14.00
68027;BMP180;54819;48.030;14.710;2023-08-07T07:52:06;97229.80;;;14.00
68027;BMP180;54819;48.030;14.710;2023-08-07T07:54:35;97237.40;;;14.00
68027;BMP180;54819;48.030;14.710;2023-08-07T07:57:01;97247.40;;;14.10
68027;BMP180;54819;48.030;14.710;2023-08-07T07:59:28;97241.60;;;14.10
68027;BMP180;54819;48.030;14.710;2023-08-07T08:01:55;97253.80;;;14.10
68027;BMP180;54819;48.030;14.710;2023-08-07T08:04:22;97251.80;;;14.00
68027;BMP180;54819;48.030;14.710;2023-08-07T08:06:49;97257.20;;;13.94
68027;BMP180;54819;48.030;14.710;2023-08-07T08:09:16;97266.60;;;13.90
68027;BMP180;54819;48.030;14.710;2023-08-07T08:11:43;97265.00;;;13.90
68027;BMP180;54819;48.030;14.710;2023-08-07T08:14:10;97262.60;;;14.00
68027;BMP180;54819;48.030;14.710;2023-08-07T08:16:36;97265.60;;;14.00
68027;BMP180;54819;48.030;14.710;2023-08-07T08:19:04;97273.60;;;14.00
68027;BMP180;54819;48.030;14.710;2023-08-07T08:21:30;97275.20;;;14.10
68027;BMP180;54819;48.030;14.710;2023-08-07T08:23:59;97286.00;;;14.10
68027;BMP180;54819;48.030;14.710;2023-08-07T08:26:26;97288.40;;;14.16
68027;BMP180;54819;48.030;14.710;2023-08-07T08:28:53;97283.40;;;14.20
68027;BMP180;54819;48.030;14.710;2023-08-07T08:31:19;97292.40;;;14.20
68027;BMP180;54819;48.030;14.710;2023-08-07T08:33:48;97295.40;;;14.20
68027;BMP180;54819;48.030;14.710;2023-08-07T08:36:15;97303.00;;;14.20
68027;BMP180;54819;48.030;14.710;2023-08-07T08:38:42;97307.00;;;14.28
68027;BMP180;54819;48.030;14.710;2023-08-07T08:41:09;97310.40;;;14.30
68027;BMP180;54819;48.030;14.710;2023-08-07T08:43:38;97313.20;;;14.32
68027;BMP180;54819;48.030;14.710;2023-08-07T08:46:08;97314.80;;;14.40
68027;BMP180;54819;48.030;14.710;2023-08-07T08:48:38;97317.20;;;14.40
68027;BMP180;54819;48.030;14.710;2023-08-07T08:51:06;97327.80;;;14.40
68027;BMP180;54819;48.030;14.710;2023-08-07T08:53:35;97314.00;;;14.42
68027;BMP180;54819;48.030;14.710;2023-08-07T08:56:02;97321.00;;;14.50
68027;BMP180;54819;48.030;14.710;2023-08-07T08:58:29;97321.80;;;14.50
68027;BMP180;54819;48.030;14.710;2023-08-07T09:00:56;97324.60;;;14.50
68027;BMP180;54819;48.030;14.710;2023-08-07T09:03:24;97331.60;;;14.60
68027;BMP180;54819;48.030;14.710;2023-08-07T09:05:53;97328.60;;;14.60
68027;BMP180;54819;48.030;14.710;2023-08-07T09:08:22;97323.60;;;14.70
68027;BMP180;54819;48.030;14.710;2023-08-07T09:10:49;97334.20;;;14.70
68027;BMP180;54819;48.030;14.710;2023-08-07T09:13:20;97335.20;;;14.70
68027;BMP180;54819;48.030;14.710;2023-08-07T09:15:50;97334.20;;;14.70
68027;BMP180;54819;48.030;14.710;2023-08-07T09:18:18;97337.20;;;14.70
68027;BMP180;54819;48.030;14.710;2023-08-07T09:20:47;97343.20;;;14.70
68027;BMP180;54819;48.030;14.710;2023-08-07T09:23:16;97343.80;;;14.80
68027;BMP180;54819;48.030;14.710;2023-08-07T09:25:45;97345.00;;;14.80
68027;BMP180;54819;48.030;14.710;2023-08-07T09:28:12;97349.40;;;14.90
68027;BMP180;54819;48.030;14.710;2023-08-07T09:30:41;97363.60;;;14.80
68027;BMP180;54819;48.030;14.710;2023-08-07T09:33:10;97355.60;;;14.80
68027;BMP180;54819;48.030;14.710;2023-08-07T09:35:39;97359.20;;;14.70
68027;BMP180;54819;48.030;14.710;2023-08-07T09:38:07;97361.40;;;14.68
68027;BMP180;54819;48.030;14.710;2023-08-07T09:40:34;97364.40;;;14.60
68027;BMP180;54819;48.030;14.710;2023-08-07T09:43:01;97372.80;;;14.60
68027;BMP180;54819;48.030;14.710;2023-08-07T09:45:29;97370.60;;;14.60
68027;BMP180;54819;48.030;14.710;2023-08-07T09:50:25;97375.80;;;14.70
68027;BMP180;54819;48.030;14.710;2023-08-07T09:52:52;97376.60;;;14.80
68027;BMP180;54819;48.030;14.710;2023-08-07T09:55:19;97381.60;;;14.90
68027;BMP180;54819;48.030;14.710;2023-08-07T09:57:45;97373.00;;;15.00
68027;BMP180;54819;48.030;14.710;2023-08-07T10:00:12;97384.40;;;15.10
68027;BMP180;54819;48.030;14.710;2023-08-07T10:02:42;97384.40;;;15.22
68027;BMP180;54819;48.030;14.710;2023-08-07T10:05:12;97387.80;;;15.44
68027;BMP180;54819;48.030;14.710;2023-08-07T10:07:40;97386.80;;;15.58
68027;BMP180;54819;48.030;14.710;2023-08-07T10:10:07;97391.20;;;15.60
68027;BMP180;54819;48.030;14.710;2023-08-07T10:12:36;97395.40;;;15.60
68027;BMP180;54819;48.030;14.710;2023-08-07T10:15:03;97400.60;;;15.60
68027;BMP180;54819;48.030;14.710;2023-08-07T10:17:31;97406.20;;;15.50
68027;BMP180;54819;48.030;14.710;2023-08-07T10:19:58;97407.40;;;15.50
68027;BMP180;54819;48.030;14.710;2023-08-07T10:22:26;97407.00;;;15.46
68027;BMP180;54819;48.030;14.710;2023-08-07T10:24:56;97412.60;;;15.50
68027;BMP180;54819;48.030;14.710;2023-08-07T10:27:24;97415.00;;;15.58
68027;BMP180;54819;48.030;14.710;2023-08-07T10:29:53;97418.80;;;15.60
68027;BMP180;54819;48.030;14.710;2023-08-07T10:32:21;97416.80;;;15.74
68027;BMP180;54819;48.030;14.710;2023-08-07T10:34:52;97415.60;;;15.84
68027;BMP180;54819;48.030;14.710;2023-08-07T10:37:38;97418.60;;;15.98
68027;BMP180;54819;48.030;14.710;2023-08-07T10:40:07;97415.40;;;16.02
68027;BMP180;54819;48.030;14.710;2023-08-07T10:43:01;97416.00;;;16.10
68027;BMP180;54819;48.030;14.710;2023-08-07T10:45:37;97416.60;;;16.20
68027;BMP180;54819;48.030;14.710;2023-08-07T10:48:12;97412.40;;;16.28
68027;BMP180;54819;48.030;14.710;2023-08-07T10:56:01;97418.40;;;16.36
68027;BMP180;54819;48.030;14.710;2023-08-07T10:58:33;97421.80;;;16.40
68027;BMP180;54819;48.030;14.710;2023-08-07T11:06:31;97415.00;;;16.60
68027;BMP180;54819;48.030;14.710;2023-08-07T11:08:59;97420.60;;;16.60
68027;BMP180;54819;48.030;14.710;2023-08-07T11:11:27;97421.00;;;16.60
68027;BMP180;54819;48.030;14.710;2023-08-07T11:13:54;97422.20;;;16.68
68027;BMP180;54819;48.030;14.710;2023-08-07T11:16:21;97425.00;;;16.64
68027;BMP180;54819;48.030;14.710;2023-08-07T11:18:49;97419.00;;;16.70
68027;BMP180;54819;48.030;14.710;2023-08-07T11:21:16;97424.40;;;16.80
68027;BMP180;54819;48.030;14.710;2023-08-07T11:23:43;97426.00;;;16.90
68027;BMP180;54819;48.030;14.710;2023-08-07T11:26:12;97427.80;;;17.00
68027;BMP180;54819;48.030;14.710;2023-08-07T11:28:39;97429.40;;;17.10
68027;BMP180;54819;48.030;14.710;2023-08-07T11:31:06;97428.40;;;17.10
68027;BMP180;54819;48.030;14.710;2023-08-07T11:33:33;97427.60;;;17.10
68027;BMP180;54819;48.030;14.710;2023-08-07T11:36:00;97427.80;;;17.10
68027;BMP180;54819;48.030;14.710;2023-08-07T11:38:33;97433.40;;;17.10
68027;BMP180;54819;48.030;14.710;2023-08-07T11:41:02;97423.60;;;17.00
68027;BMP180;54819;48.030;14.710;2023-08-07T11:43:30;97426.00;;;17.14
68027;BMP180;54819;48.030;14.710;2023-08-07T11:45:59;97426.80;;;17.20
68027;BMP180;54819;48.030;14.710;2023-08-07T11:48:27;97432.00;;;17.20
68027;BMP180;54819;48.030;14.710;2023-08-07T11:50:55;97426.40;;;17.30
68027;BMP180;54819;48.030;14.710;2023-08-07T11:53:26;97434.60;;;17.50
68027;BMP180;54819;48.030;14.710;2023-08-07T11:55:58;97429.40;;;17.70
68027;BMP180;54819;48.030;14.710;2023-08-07T11:58:27;97425.40;;;17.90
68027;BMP180;54819;48.030;14.710;2023-08-07T12:00:54;97432.80;;;17.90
68027;BMP180;54819;48.030;14.710;2023-08-07T12:03:28;97433.20;;;18.00
68027;BMP180;54819;48.030;14.710;2023-08-07T12:05:57;97431.60;;;18.00
68027;BMP180;54819;48.030;14.710;2023-08-07T12:08:38;97437.00;;;18.00
68027;BMP180;54819;48.030;14.710;2023-08-07T12:11:14;97434.80;;;18.20
68027;BMP180;54819;48.030;14.710;2023-08-07T12:13:43;97432.80;;;18.38
68027;BMP180;54819;48.030;14.710;2023-08-07T12:16:13;97440.40;;;18.40
68027;BMP180;54819;48.030;14.710;2023-08-07T12:18:53;97444.60;;;18.40
68027;BMP180;54819;48.030;14.710;2023-08-07T12:21:23;97445.00;;;18.30
68027;BMP180;54819;48.030;14.710;2023-08-07T12:23:51;97453.20;;;18.20
68027;BMP180;54819;48.030;14.710;2023-08-07T12:26:21;97453.40;;;18.20
68027;BMP180;54819;48.030;14.710;2023-08-07T12:28:47;97451.60;;;18.10
68027;BMP180;54819;48.030;14.710;2023-08-07T12:31:14;97457.00;;;18.10
68027;BMP180;54819;48.030;14.710;2023-08-07T12:33:40;97454.40;;;18.10
68027;BMP180;54819;48.030;14.710;2023-08-07T12:36:07;97449.20;;;18.10
68027;BMP180;54819;48.030;14.710;2023-08-07T12:38:37;97451.00;;;18.20
68027;BMP180;54819;48.030;14.710;2023-08-07T12:41:04;97450.00;;;18.30
68027;BMP180;54819;48.030;14.710;2023-08-07T12:43:31;97460.00;;;18.30
68027;BMP180;54819;48.030;14.710;2023-08-07T12:45:59;97456.60;;;18.20
68027;BMP180;54819;48.030;14.710;2023-08-07T12:48:45;97460.00;;;18.20
68027;BMP180;54819;48.030;14.710;2023-08-07T12:51:12;97457.60;;;18.20
68027;BMP180;54819;48.030;14.710;2023-08-07T12:53:39;97458.40;;;18.22
68027;BMP180;54819;48.030;14.710;2023-08-07T12:56:05;97455.40;;;18.30
68027;BMP180;54819;48.030;14.710;2023-08-07T12:58:32;97453.40;;;18.40
68027;BMP180;54819;48.030;14.710;2023-08-07T13:00:59;97457.60;;;18.50
68027;BMP180;54819;48.030;14.710;2023-08-07T13:03:25;97460.20;;;18.40
68027;BMP180;54819;48.030;14.710;2023-08-07T13:05:52;97461.80;;;18.30
68027;BMP180;54819;48.030;14.710;2023-08-07T13:08:18;97463.80;;;18.20
68027;BMP180;54819;48.030;14.710;2023-08-07T13:10:45;97457.60;;;18.18
68027;BMP180;54819;48.030;14.710;2023-08-07T13:13:15;97466.40;;;18.20
68027;BMP180;54819;48.030;14.710;2023-08-07T13:15:42;97468.00;;;18.10
68027;BMP180;54819;48.030;14.710;2023-08-07T13:18:09;97462.40;;;18.10
68027;BMP180;54819;48.030;14.710;2023-08-07T13:20:35;97460.80;;;18.10
68027;BMP180;54819;48.030;14.710;2023-08-07T13:23:02;97462.00;;;18.00
68027;BMP180;54819;48.030;14.710;2023-08-07T13:25:31;97461.20;;;17.90
68027;BMP180;54819;48.030;14.710;2023-08-07T13:27:57;97463.20;;;17.80
68027;BMP180;54819;48.030;14.710;2023-08-07T13:30:24;97459.80;;;17.80
68027;BMP180;54819;48.030;14.710;2023-08-07T13:32:50;97460.20;;;17.90
68027;BMP180;54819;48.030;14.710;2023-08-07T13:35:17;97460.20;;;17.90
68027;BMP180;54819;48.030;14.710;2023-08-07T13:37:44;97466.40;;;17.88
68027;BMP180;54819;48.030;14.710;2023-08-07T13:40:10;97468.40;;;17.80
68027;BMP180;54819;48.030;14.710;2023-08-07T13:42:38;97475.80;;;17.80
68027;BMP180;54819;48.030;14.710;2023-08-07T13:45:06;97477.00;;;17.80
68027;BMP180;54819;48.030;14.710;2023-08-07T13:47:34;97474.40;;;17.80
68027;BMP180;54819;48.030;14.710;2023-08-07T13:50:03;97480.40;;;17.80
68027;BMP180;54819;48.030;14.710;2023-08-07T13:52:30;97475.60;;;17.90
68027;BMP180;54819;48.030;14.710;2023-08-07T13:54:57;97479.40;;;17.94
68027;BMP180;54819;48.030;14.710;2023-08-07T13:57:24;97475.00;;;18.00
68027;BMP180;54819;48.030;14.710;2023-08-07T13:59:51;97473.00;;;18.10
68027;BMP180;54819;48.030;14.710;2023-08-07T14:02:18;97478.60;;;18.10
68027;BMP180;54819;48.030;14.710;2023-08-07T14:04:44;97479.20;;;18.18
68027;BMP180;54819;48.030;14.710;2023-08-07T14:07:12;97484.60;;;18.28
68027;BMP180;54819;48.030;14.710;2023-08-07T14:09:39;97476.80;;;18.40
68027;BMP180;54819;48.030;14.710;2023-08-07T14:12:07;97475.40;;;18.56
68027;BMP180;54819;48.030;14.710;2023-08-07T14:14:33;97474.80;;;18.70
68027;BMP180;54819;48.030;14.710;2023-08-07T14:17:00;97466.20;;;18.90
68027;BMP180;54819;48.030;14.710;2023-08-07T14:19:28;97466.60;;;19.00
68027;BMP180;54819;48.030;14.710;2023-08-07T14:21:55;97467.20;;;19.00
68027;BMP180;54819;48.030;14.710;2023-08-07T14:24:22;97473.40;;;18.90